Erie International Tom Ridge Field
KERI : now visible

Airfield :











YOU CAN JOIN US ON...

 
LOGIN :

Register | Disclaimer

   EN    FR    IT 

 









Legend :    VFR   Marginal VFR   IFR   Intensive IFR   Very Intensive IFR
Visi :
Ceiling :
>= 8 km
>= 3000ft
5 to 8 km
1000 to 3000 ft
1500m to 5 km
500 to 1000 ft
800 to 1500m
200 to 500 ft
< 800m
< 200 ft
Symbols :   Thunderstorms  Fog  Heavy snow  Heavy precipitations  Wind > 20 kt






- Airport Elevation : 733 ft
- IATA code : ERI


KERI - Erie International Tom Ridge Field

CURRENT METAR :
  • 130451Z AUTO 16018G27KT 10SM CLR 01/M08 A3024 RMK AO2 PK WND 15030/0438 SLP248 T00061078 400171078

EXPIRED METARs :
  • 130351Z 16018G27KT 10SM CLR 01/M08 A3026 RMK AO2 PK WND 14029/0318 SLP255 T00111083
  • 130251Z 16017G26KT 10SM CLR 01/M08 A3028 RMK AO2 PK WND 16027/0209 SLP265 T00111083 58018

TAF KERI
Valid from the 13 at 00:00 until the 14 at 00:00 UTC


122320Z 1300/1324 17016G21KT P6SM BKN250
FM131900 15011KT P6SM BKN050 BKN250



MET'MAP, your aeronautical weather chart ! - Copyright ORBIFLY December 2007 - Disclaimer

ORBIFLY MET'MAP TEAM :

Programming & Development : Alexandra Zaïnal
Concept & original design : Baudouin d'Aumeries
Assistance for programming : Marc-Olivier Méhu
Technical & hardware support : Manuel Goepfert

Contact : metmap@orbifly.com




SOURCES & CREDITS :

   NOAA       Earth
Advisory